Thalia — FPCS — position and weather

sailwx.info

Track history (hours):
 
Tides and Currents Weather Stations Pressure Air Temp Water Temp Dewpoint Dewpoint Depression Visibility Wind Speed Wind Dir Waves Ship Positions

Oceanographic research ship Thalia (France)

Detailed information on ship capabilities available from University of Delaware's Ocean Information Center.

Last reported at 2018-Jul-22 04:51 UTC. Time now 2018-Aug-16 20:17 UTC.
Position N 48°39' W 002°01'.
Warning: this ship's position is 25 days out of date.

Length 25 m; beam 7 m.

Type: Fishing. MMSI: 227270000.

Date/timePositionNaut miles runAvg speedWind from/ knotsBaromVisibWave heightAir tempDewpointWater temp
2018-Jul-22 04:51N 48°39' W 002°01'0 0.0
2018-Jul-21 20:03N 48°39' W 002°01'0 0.0
2018-Jul-21 19:51N 48°39' W 002°01'0 0.0
2018-Jul-21 19:24N 48°39' W 002°01'0 0.0
2018-Jul-21 18:45N 48°39' W 002°01'0 0.0
2018-Jul-21 18:30N 48°39' W 002°01'0 0.0
2018-Jul-21 18:00N 48°39' W 002°01'0 0.0
2018-Jul-21 17:27N 48°39' W 002°01'0 0.0
2018-Jul-21 15:42N 48°39' W 002°01'0 0.0
2018-Jul-21 06:59N 48°39' W 002°01'0 0.0
2018-Jul-20 20:02N 48°39' W 002°01'0 0.0
2018-Jul-20 19:56N 48°39' W 002°01'0 0.0
2018-Jul-20 13:38N 48°39' W 002°01'0 0.0
2018-Jul-20 13:20N 48°39' W 002°01'0 0.0
2018-Jul-20 12:59N 48°39' W 002°01'0 0.1
2018-Jul-20 09:42N 48°39' W 002°01'1 0.7
2018-Jul-20 08:55N 48°39' W 002°02'3 3.7
2018-Jul-20 08:13N 48°40' W 002°05'1 5.4
2018-Jul-20 08:00N 48°41' W 002°06'6 8.1
2018-Jul-20 07:19N 48°45' W 002°11'3 9.9
2018-Jul-20 07:01N 48°48' W 002°14'5 9.7
2018-Jul-20 06:30N 48°51' W 002°18'7 8.7
2018-Jul-20 05:42N 48°58' W 002°22'2 9.4
2018-Jul-20 05:29N 48°60' W 002°22'5 9.3
2018-Jul-20 04:55N 49°05' W 002°23'8 9.2
2018-Jul-20 04:06N 49°13' W 002°23'4 9.1
2018-Jul-20 03:37N 49°17' W 002°21'3 8.9
2018-Jul-20 03:14N 49°20' W 002°18'2 8.4
2018-Jul-20 02:58N 49°22' W 002°17'5 8.1
2018-Jul-20 02:22N 49°26' W 002°14'4 7.7
2018-Jul-20 01:52N 49°30' W 002°11'3 7.8
2018-Jul-20 01:30N 49°32' W 002°09'6 7.1
2018-Jul-20 00:43N 49°37' W 002°06'2 6.2
2018-Jul-20 00:25N 49°39' W 002°04'2 5.3
2018-Jul-19 23:56N 49°41' W 002°03'1 3.3
2018-Jul-19 23:31N 49°43' W 002°02'2 4.0
2018-Jul-19 22:53N 49°45' W 002°00'25 9.1
2018-Jul-19 20:07N 49°46' W 001°21'111.7
2018-Jul-19 20:01N 49°47' W 001°19'1411.9
2018-Jul-19 18:49N 49°40' W 001°00'411.6
2018-Jul-19 18:30N 49°38' W 000°56'611.4
2018-Jul-19 18:00N 49°35' W 000°48'511.0
2018-Jul-19 17:30N 49°32' W 000°41'510.2
2018-Jul-19 17:00N 49°29' W 000°34'5 9.7
2018-Jul-19 16:30N 49°26' W 000°28'5 9.3
2018-Jul-19 16:00N 49°24' W 000°22'5 9.3
2018-Jul-19 15:30N 49°21' W 000°16'4 7.9
2018-Jul-19 15:00N 49°17' W 000°15'1 1.2
2018-Jul-19 14:30N 49°17' W 000°15'0 0.4
2018-Jul-19 13:21N 49°16' W 000°15'0 0.0
2018-Jul-19 13:00N 49°16' W 000°15'0 0.0
2018-Jul-19 12:30N 49°16' W 000°15'0 0.0
2018-Jul-19 12:00N 49°16' W 000°15'0 0.0
2018-Jul-19 11:30N 49°16' W 000°15'0 0.0
2018-Jul-19 11:00N 49°16' W 000°15'0 0.0
2018-Jul-19 10:30N 49°16' W 000°15'0 0.0
2018-Jul-19 10:00N 49°16' W 000°15'0 0.0
2018-Jul-19 09:30N 49°16' W 000°15'0 0.0
2018-Jul-19 09:00N 49°16' W 000°15'0 0.0
2018-Jul-19 08:30N 49°16' W 000°15'0 0.0
2018-Jul-19 08:00N 49°16' W 000°15'0 0.0
2018-Jul-19 07:30N 49°16' W 000°15'0 0.0
2018-Jul-19 07:00N 49°16' W 000°15'0 0.0
2018-Jul-19 06:30N 49°16' W 000°15'0 0.0
2018-Jul-19 06:00N 49°16' W 000°15'0 0.0
2018-Jul-19 05:30N 49°16' W 000°15'0 0.0
2018-Jul-19 05:00N 49°16' W 000°15'0 0.0
2018-Jul-19 04:30N 49°16' W 000°15'0 0.0
2018-Jul-19 04:00N 49°16' W 000°15'0 0.0
2018-Jul-19 03:30N 49°16' W 000°15'0 0.0
2018-Jul-19 02:54N 49°16' W 000°15'0 0.0
2018-Jul-19 02:30N 49°16' W 000°15'0 0.0
2018-Jul-19 02:00N 49°16' W 000°15'0 0.0
2018-Jul-19 01:30N 49°16' W 000°15'0 0.0
2018-Jul-19 01:00N 49°16' W 000°15'0 0.0
2018-Jul-19 00:30N 49°16' W 000°15'0 0.0
2018-Jul-19 00:00N 49°16' W 000°15'0 0.0
2018-Jul-18 23:30N 49°16' W 000°15'0 0.0
2018-Jul-18 23:00N 49°16' W 000°15'0 0.0
2018-Jul-18 22:30N 49°16' W 000°15'0 0.0
2018-Jul-18 22:00N 49°16' W 000°15'0 0.0
2018-Jul-18 21:27N 49°16' W 000°15'0 0.0
2018-Jul-18 21:00N 49°16' W 000°15'0 0.0
2018-Jul-18 20:30N 49°16' W 000°15'0 0.0
2018-Jul-18 20:00N 49°16' W 000°15'0 0.0
2018-Jul-18 19:30N 49°16' W 000°15'0 0.0
2018-Jul-18 19:00N 49°16' W 000°15'0 0.0
2018-Jul-18 18:30N 49°16' W 000°15'0 0.0
2018-Jul-18 18:00N 49°16' W 000°15'0 0.0
2018-Jul-18 17:30N 49°16' W 000°15'0 0.0
2018-Jul-18 17:00N 49°16' W 000°15'0 0.0
2018-Jul-18 16:30N 49°16' W 000°15'0 0.0
2018-Jul-18 16:00N 49°16' W 000°15'0 0.0
2018-Jul-18 15:30N 49°16' W 000°15'0 0.0
2018-Jul-18 14:59N 49°16' W 000°15'0 0.0
2018-Jul-18 14:30N 49°16' W 000°15'0 0.0
2018-Jul-18 13:29N 49°16' W 000°15'0 0.0
2018-Jul-18 12:59N 49°16' W 000°15'0 0.0
2018-Jul-18 12:29N 49°16' W 000°15'0 0.0
2018-Jul-18 11:59N 49°16' W 000°15'0 0.0
2018-Jul-18 11:29N 49°16' W 000°15'0 0.0
2018-Jul-18 10:29N 49°16' W 000°15'0 0.0
2018-Jul-18 09:56N 49°16' W 000°15'0 0.0
2018-Jul-18 09:29N 49°16' W 000°15'0 0.0
2018-Jul-18 08:59N 49°16' W 000°15'0 0.0
2018-Jul-18 08:29N 49°16' W 000°15'0 0.0
2018-Jul-18 07:59N 49°16' W 000°15'0 0.0
2018-Jul-18 07:23N 49°16' W 000°15'0 0.0
2018-Jul-18 06:59N 49°16' W 000°15'0 0.0
2018-Jul-18 06:29N 49°16' W 000°15'0 0.0
2018-Jul-18 05:59N 49°16' W 000°15'0 0.0
2018-Jul-18 05:29N 49°16' W 000°15'0 0.0
2018-Jul-18 04:59N 49°16' W 000°15'0 0.0
2018-Jul-18 04:29N 49°16' W 000°15'0 0.0
2018-Jul-18 03:56N 49°16' W 000°15'0 0.0
2018-Jul-18 03:29N 49°16' W 000°15'0 0.0
2018-Jul-18 02:59N 49°16' W 000°15'0 0.0
2018-Jul-18 02:29N 49°16' W 000°15'0 0.0
2018-Jul-18 01:59N 49°16' W 000°15'0 0.0
2018-Jul-18 01:29N 49°16' W 000°15'0 0.0
2018-Jul-18 00:59N 49°16' W 000°15'0 0.0
2018-Jul-18 00:29N 49°16' W 000°15'0 0.0
2018-Jul-17 23:59N 49°16' W 000°15'0 0.0
2018-Jul-17 23:29N 49°16' W 000°15'0 0.0
2018-Jul-17 22:59N 49°16' W 000°15'0 0.0
2018-Jul-17 22:29N 49°16' W 000°15'0 0.0
2018-Jul-17 21:56N 49°16' W 000°15'0 0.0
2018-Jul-17 21:29N 49°16' W 000°15'0 0.0
2018-Jul-17 20:59N 49°16' W 000°15'0 0.0
2018-Jul-17 20:29N 49°16' W 000°15'0 0.0
2018-Jul-17 19:59N 49°16' W 000°15'0 0.0
2018-Jul-17 19:29N 49°16' W 000°15'0 0.0
2018-Jul-17 18:59N 49°16' W 000°15'0 0.0
2018-Jul-17 18:29N 49°16' W 000°15'0 0.0
2018-Jul-17 17:59N 49°16' W 000°15'0 0.0
2018-Jul-17 17:29N 49°16' W 000°15'0 0.0
2018-Jul-17 16:59N 49°16' W 000°15'0 0.0
2018-Jul-17 16:29N 49°16' W 000°15'0 0.0
2018-Jul-17 15:59N 49°16' W 000°15'1 1.1
2018-Jul-17 15:30N 49°17' W 000°15'0 0.5
2018-Jul-17 15:00N 49°17' W 000°15'2 4.7
2018-Jul-17 14:30N 49°19' W 000°15'1 1.8
2018-Jul-17 14:01N 49°20' W 000°14'2 4.5
2018-Jul-17 13:30N 49°22' W 000°17'3 6.6
2018-Jul-17 13:00N 49°24' W 000°21'4 8.0
2018-Jul-17 12:30N 49°26' W 000°26'4 8.8
2018-Jul-17 12:00N 49°29' W 000°31'4 8.2
2018-Jul-17 11:30N 49°31' W 000°37'2 3.7
2018-Jul-17 11:00N 49°32' W 000°38'1 1.3
2018-Jul-17 10:30N 49°32' W 000°39'1 1.4
2018-Jul-17 10:00N 49°32' W 000°40'1 2.1
2018-Jul-17 09:30N 49°31' W 000°40'1 2.3
2018-Jul-17 09:00N 49°30' W 000°39'1 2.2
2018-Jul-17 08:30N 49°29' W 000°38'1 1.4
2018-Jul-17 08:00N 49°29' W 000°39'1 2.3
2018-Jul-17 07:30N 49°28' W 000°39'1 1.3
2018-Jul-17 06:57N 49°27' W 000°40'3 5.8
2018-Jul-17 06:30N 49°25' W 000°41'3 5.3
2018-Jul-17 06:00N 49°22' W 000°42'0 0.0
2018-Jul-17 02:01N 49°22' W 000°42'0 0.0
2018-Jul-16 22:55N 49°22' W 000°42'0 0.0
2018-Jul-16 21:43N 49°22' W 000°42'0 0.0
2018-Jul-16 19:37N 49°22' W 000°42'0 0.0
2018-Jul-16 19:25N 49°22' W 000°42'0 0.0
2018-Jul-16 18:37N 49°22' W 000°42'0 0.0
2018-Jul-16 18:28N 49°22' W 000°42'0 0.0
2018-Jul-16 17:58N 49°22' W 000°42'0 0.0
2018-Jul-16 17:25N 49°22' W 000°42'0 0.0
2018-Jul-16 16:58N 49°22' W 000°42'0 0.0
2018-Jul-16 16:28N 49°22' W 000°42'0 0.0
2018-Jul-16 15:55N 49°22' W 000°42'0 0.0
2018-Jul-16 15:28N 49°22' W 000°42'0 0.0
2018-Jul-16 14:58N 49°22' W 000°42'1 1.8
2018-Jul-16 14:30N 49°23' W 000°42'2 3.4
2018-Jul-16 14:00N 49°25' W 000°43'2 4.2
2018-Jul-16 13:30N 49°27' W 000°43'2 3.9
2018-Jul-16 13:00N 49°29' W 000°43'1 2.1
2018-Jul-16 12:30N 49°30' W 000°43'1 2.8
2018-Jul-16 12:00N 49°30' W 000°45'1 1.7
2018-Jul-16 11:31N 49°30' W 000°46'1 1.4
2018-Jul-16 11:01N 49°30' W 000°46'1 2.9
2018-Jul-16 10:31N 49°30' W 000°44'2 3.4
2018-Jul-16 10:01N 49°32' W 000°44'2 4.7
2018-Jul-16 09:30N 49°31' W 000°47'1 1.6
2018-Jul-16 09:00N 49°30' W 000°48'2 3.6
2018-Jul-16 08:30N 49°29' W 000°48'1 2.7
2018-Jul-16 08:00N 49°28' W 000°46'1 2.0
2018-Jul-16 07:30N 49°28' W 000°45'1 2.7
2018-Jul-16 07:00N 49°26' W 000°46'2 3.5
2018-Jul-16 06:31N 49°25' W 000°48'3 6.3
2018-Jul-16 06:00N 49°22' W 000°47'0 0.1
2018-Jul-16 05:27N 49°22' W 000°47'0 0.0
2018-Jul-16 05:00N 49°22' W 000°47'0 0.0
2018-Jul-16 04:30N 49°22' W 000°47'0 0.0
2018-Jul-16 04:00N 49°22' W 000°47'0 0.0
2018-Jul-16 03:30N 49°22' W 000°47'0 0.0
2018-Jul-16 03:00N 49°22' W 000°47'0 0.0
2018-Jul-16 02:30N 49°22' W 000°47'0 0.0
2018-Jul-16 01:51N 49°22' W 000°47'0 0.0
2018-Jul-16 01:27N 49°22' W 000°47'0 0.0
2018-Jul-16 01:00N 49°22' W 000°47'0 0.0
2018-Jul-16 00:30N 49°22' W 000°47'0 0.0
2018-Jul-15 23:57N 49°22' W 000°47'0 0.0
2018-Jul-15 23:27N 49°22' W 000°47'0 0.0
2018-Jul-15 22:57N 49°22' W 000°47'0 0.0
2018-Jul-15 22:30N 49°22' W 000°47'0 0.0
2018-Jul-15 22:00N 49°22' W 000°47'0 0.0
2018-Jul-15 21:30N 49°22' W 000°47'0 0.0
2018-Jul-15 21:00N 49°22' W 000°47'0 0.0
2018-Jul-15 20:27N 49°22' W 000°47'0 0.0
2018-Jul-15 19:57N 49°22' W 000°47'0 0.0
2018-Jul-15 18:54N 49°22' W 000°47'0 0.0
2018-Jul-15 18:15N 49°22' W 000°47'0 0.0
2018-Jul-15 17:54N 49°22' W 000°47'0 0.0
2018-Jul-15 17:30N 49°22' W 000°47'0 0.0
2018-Jul-15 17:00N 49°22' W 000°47'0 0.0
2018-Jul-15 16:15N 49°22' W 000°47'0 0.0
2018-Jul-15 15:55N 49°22' W 000°47'3 7.0
2018-Jul-15 15:30N 49°25' W 000°45'5 9.6
2018-Jul-15 15:00N 49°29' W 000°42'3 6.3
2018-Jul-15 14:30N 49°32' W 000°40'3 6.8
2018-Jul-15 14:00N 49°35' W 000°41'1 2.0
2018-Jul-15 13:30N 49°36' W 000°42'1 3.0
2018-Jul-15 13:00N 49°37' W 000°44'1 2.9
2018-Jul-15 12:30N 49°38' W 000°43'0 0.2
2018-Jul-15 12:00N 49°38' W 000°43'1 2.2
2018-Jul-15 11:29N 49°37' W 000°41'2 4.4
2018-Jul-15 11:00N 49°37' W 000°38'3 5.0
2018-Jul-15 10:30N 49°35' W 000°36'1 2.9
2018-Jul-15 10:00N 49°34' W 000°34'1 1.5
2018-Jul-15 09:30N 49°34' W 000°33'2 3.7
2018-Jul-15 09:00N 49°34' W 000°35'1 2.4
2018-Jul-15 08:30N 49°32' W 000°35'2 3.0
2018-Jul-15 08:00N 49°31' W 000°33'3 7.0
2018-Jul-15 07:30N 49°28' W 000°36'2 3.7
2018-Jul-15 07:00N 49°27' W 000°37'2 4.5
2018-Jul-15 06:30N 49°24' W 000°38'3 6.6
2018-Jul-15 06:00N 49°22' W 000°42'0 0.0
2018-Jul-15 05:28N 49°22' W 000°42'0 0.0
2018-Jul-15 04:55N 49°22' W 000°42'0 0.0
2018-Jul-15 04:25N 49°22' W 000°42'0 0.0
2018-Jul-15 03:58N 49°22' W 000°42'0 0.0
2018-Jul-15 03:28N 49°22' W 000°42'0 0.0
2018-Jul-15 02:55N 49°22' W 000°42'0 0.0
2018-Jul-15 02:28N 49°22' W 000°42'0 0.0
2018-Jul-15 01:55N 49°22' W 000°42'0 0.0
2018-Jul-15 01:19N 49°22' W 000°42'0 0.0
2018-Jul-15 00:58N 49°22' W 000°42'0 0.0
2018-Jul-15 00:28N 49°22' W 000°42'0 0.0
2018-Jul-14 23:55N 49°22' W 000°42'0 0.0
2018-Jul-14 23:25N 49°22' W 000°42'0 0.0
2018-Jul-14 22:58N 49°22' W 000°42'0 0.0
2018-Jul-14 22:28N 49°22' W 000°42'0 0.0
2018-Jul-14 21:52N 49°22' W 000°42'0 0.0
2018-Jul-14 21:28N 49°22' W 000°42'0 0.0
2018-Jul-14 20:55N 49°22' W 000°42'0 0.0
2018-Jul-14 20:28N 49°22' W 000°42'0 0.0
2018-Jul-14 19:58N 49°22' W 000°42'0 0.0
2018-Jul-14 19:28N 49°22' W 000°42'0 0.0
2018-Jul-14 18:52N 49°22' W 000°42'0 0.0
2018-Jul-14 18:28N 49°22' W 000°42'0 0.0
2018-Jul-14 17:58N 49°22' W 000°42'0 0.0
2018-Jul-14 17:28N 49°22' W 000°42'0 0.0
2018-Jul-14 16:58N 49°22' W 000°42'0 0.0
2018-Jul-14 16:28N 49°22' W 000°42'0 0.5
2018-Jul-14 16:01N 49°22' W 000°41'5 9.8
2018-Jul-14 15:30N 49°26' W 000°36'1 2.0
2018-Jul-14 15:00N 49°27' W 000°36'2 3.4
2018-Jul-14 14:30N 49°29' W 000°36'3 2.7
2018-Jul-14 13:30N 49°31' W 000°34'1 1.9
2018-Jul-14 13:00N 49°31' W 000°32'3 6.7
2018-Jul-14 12:31N 49°31' W 000°27'2 4.1
2018-Jul-14 12:01N 49°30' W 000°25'2 4.5
2018-Jul-14 11:30N 49°29' W 000°29'2 4.8
2018-Jul-14 11:00N 49°27' W 000°30'1 1.4
2018-Jul-14 10:30N 49°28' W 000°30'2 4.3
2018-Jul-14 10:00N 49°26' W 000°31'2 3.3
2018-Jul-14 09:30N 49°24' W 000°29'3 5.2
2018-Jul-14 09:01N 49°23' W 000°26'4 8.0
2018-Jul-14 08:30N 49°21' W 000°20'4 8.3
2018-Jul-14 08:00N 49°19' W 000°15'3 5.0
2018-Jul-14 07:30N 49°17' W 000°15'0 0.9
2018-Jul-14 07:00N 49°16' W 000°15'0 0.1
2018-Jul-14 06:29N 49°16' W 000°15'0 0.0
2018-Jul-14 05:59N 49°16' W 000°15'0 0.0
2018-Jul-14 05:26N 49°16' W 000°15'0 0.0
2018-Jul-14 04:59N 49°16' W 000°15'0 0.0
2018-Jul-14 04:29N 49°16' W 000°15'0 0.0
2018-Jul-14 03:59N 49°16' W 000°15'0 0.0
2018-Jul-14 03:29N 49°16' W 000°15'0 0.0
2018-Jul-14 02:59N 49°16' W 000°15'0 0.0
2018-Jul-14 02:29N 49°16' W 000°15'0 0.0
2018-Jul-14 01:56N 49°16' W 000°15'0 0.0
2018-Jul-14 01:29N 49°16' W 000°15'0 0.0
2018-Jul-14 00:59N 49°16' W 000°15'0 0.0
2018-Jul-14 00:29N 49°16' W 000°15'0 0.0
2018-Jul-13 23:59N 49°16' W 000°15'0 0.0
2018-Jul-13 23:29N 49°16' W 000°15'0 0.0
2018-Jul-13 22:59N 49°16' W 000°15'0 0.0
2018-Jul-13 22:29N 49°16' W 000°15'0 0.0
2018-Jul-13 21:59N 49°16' W 000°15'0 0.0
2018-Jul-13 21:29N 49°16' W 000°15'0 0.0
2018-Jul-13 20:59N 49°16' W 000°15'0 0.0
2018-Jul-13 20:26N 49°16' W 000°15'0 0.0
2018-Jul-13 19:59N 49°16' W 000°15'0 0.0
2018-Jul-13 19:29N 49°16' W 000°15'0 0.0
2018-Jul-13 18:59N 49°16' W 000°15'0 0.0
2018-Jul-13 18:29N 49°16' W 000°15'0 0.0
2018-Jul-13 17:59N 49°16' W 000°15'0 0.0
2018-Jul-13 17:29N 49°16' W 000°15'0 0.0
2018-Jul-13 16:59N 49°16' W 000°15'0 0.0
2018-Jul-13 16:29N 49°16' W 000°15'0 0.0
2018-Jul-13 15:59N 49°16' W 000°15'0 0.0
2018-Jul-13 15:29N 49°16' W 000°15'0 0.0
2018-Jul-13 14:58N 49°16' W 000°15'0 0.0
2018-Jul-13 14:29N 49°16' W 000°15'0 0.0
2018-Jul-13 13:28N 49°16' W 000°15'0 0.0
2018-Jul-13 12:58N 49°16' W 000°15'0 0.0
2018-Jul-13 12:28N 49°16' W 000°15'0 0.0
2018-Jul-13 11:58N 49°16' W 000°15'0 0.0
2018-Jul-13 11:28N 49°16' W 000°15'0 0.0
2018-Jul-13 10:58N 49°16' W 000°15'0 0.0
2018-Jul-13 10:28N 49°16' W 000°15'0 0.0
2018-Jul-13 09:58N 49°16' W 000°15'0 0.0
2018-Jul-13 09:28N 49°16' W 000°15'0 0.0
2018-Jul-13 08:58N 49°16' W 000°15'0 0.0
2018-Jul-13 08:25N 49°16' W 000°15'0 0.0
2018-Jul-13 07:55N 49°16' W 000°15'0 0.0
2018-Jul-13 07:28N 49°16' W 000°15'0 0.0
2018-Jul-13 06:58N 49°16' W 000°15'0 0.0
2018-Jul-13 06:25N 49°16' W 000°15'0 0.0
2018-Jul-13 05:58N 49°16' W 000°15'0 0.0
2018-Jul-13 05:28N 49°16' W 000°15'0 0.0
2018-Jul-13 04:58N 49°16' W 000°15'0 0.0
2018-Jul-13 04:28N 49°16' W 000°15'0 0.0
2018-Jul-13 03:58N 49°16' W 000°15'0 0.0
2018-Jul-13 03:28N 49°16' W 000°15'0 0.0
2018-Jul-13 02:58N 49°16' W 000°15'0 0.0
2018-Jul-13 02:28N 49°16' W 000°15'0 0.0
2018-Jul-13 01:55N 49°16' W 000°15'0 0.0
2018-Jul-13 01:28N 49°16' W 000°15'0 0.0
2018-Jul-13 00:58N 49°16' W 000°15'0 0.0
2018-Jul-13 00:28N 49°16' W 000°15'0 0.0
2018-Jul-12 23:58N 49°16' W 000°15'0 0.0
2018-Jul-12 23:28N 49°16' W 000°15'0 0.0
2018-Jul-12 22:58N 49°16' W 000°15'0 0.0
2018-Jul-12 22:28N 49°16' W 000°15'0 0.0
2018-Jul-12 21:58N 49°16' W 000°15'0 0.0
2018-Jul-12 21:25N 49°16' W 000°15'0 0.0
2018-Jul-12 20:58N 49°16' W 000°15'0 0.0
2018-Jul-12 20:28N 49°16' W 000°15'0 0.0
2018-Jul-12 19:58N 49°16' W 000°15'0 0.0
2018-Jul-12 19:28N 49°16' W 000°15'0 0.0
2018-Jul-12 18:58N 49°16' W 000°15'0 0.0
2018-Jul-12 18:28N 49°16' W 000°15'0 0.0
2018-Jul-12 17:58N 49°16' W 000°15'0 0.0
2018-Jul-12 17:28N 49°16' W 000°15'0 0.0
2018-Jul-12 16:58N 49°16' W 000°15'0 0.0
2018-Jul-12 16:25N 49°16' W 000°15'0 0.0
2018-Jul-12 15:58N 49°16' W 000°15'0 0.0
2018-Jul-12 15:28N 49°16' W 000°15'0 0.0
2018-Jul-12 14:58N 49°16' W 000°15'0 0.0
2018-Jul-12 14:28N 49°16' W 000°15'0 0.0
2018-Jul-12 13:58N 49°16' W 000°15'0 0.0
2018-Jul-12 13:28N 49°16' W 000°15'0 0.0
2018-Jul-12 12:58N 49°16' W 000°15'0 0.0
2018-Jul-12 12:28N 49°16' W 000°15'0 0.0
2018-Jul-12 11:58N 49°16' W 000°15'0 0.0
2018-Jul-12 11:31N 49°16' W 000°15'1 1.1
2018-Jul-12 11:01N 49°17' W 000°15'2 3.1
2018-Jul-12 10:31N 49°18' W 000°15'1 2.1
2018-Jul-12 10:01N 49°19' W 000°14'1 1.6
2018-Jul-12 09:31N 49°20' W 000°14'5 9.1
2018-Jul-12 09:01N 49°24' W 000°19'510.5
2018-Jul-12 08:30N 49°28' W 000°24'3 5.2
2018-Jul-12 08:00N 49°30' W 000°26'3 6.4
2018-Jul-12 07:30N 49°28' W 000°29'1 1.5
2018-Jul-12 07:00N 49°28' W 000°30'1 2.7
2018-Jul-12 06:31N 49°26' W 000°31'4 7.1
2018-Jul-12 06:01N 49°23' W 000°31'0 0.0
2018-Jul-12 05:30N 49°23' W 000°31'0 0.0
2018-Jul-12 05:00N 49°23' W 000°31'  
Track history (hours):
 
Tides and Currents Weather Stations Pressure Air Temp Water Temp Dewpoint Dewpoint Depression Visibility Wind Speed Wind Dir Waves Ship Positions

Oceanographic research ship Thalia (France)

Detailed information on ship capabilities available from University of Delaware's Ocean Information Center.

Last reported at 2018-Jul-22 04:51 UTC. Time now 2018-Aug-16 20:17 UTC.
Position N 48°39' W 002°01'.
Warning: this ship's position is 25 days out of date.

Length 25 m; beam 7 m.

Type: Fishing. MMSI: 227270000.

Date/timePositionNaut miles runAvg speedWind from/ knotsBaromVisibWave heightAir tempDewpointWater temp
2018-Jul-22 04:51N 48°39' W 002°01'0 0.0
2018-Jul-21 20:03N 48°39' W 002°01'0 0.0
2018-Jul-21 19:51N 48°39' W 002°01'0 0.0
2018-Jul-21 19:24N 48°39' W 002°01'0 0.0
2018-Jul-21 18:45N 48°39' W 002°01'0 0.0
2018-Jul-21 18:30N 48°39' W 002°01'0 0.0
2018-Jul-21 18:00N 48°39' W 002°01'0 0.0
2018-Jul-21 17:27N 48°39' W 002°01'0 0.0
2018-Jul-21 15:42N 48°39' W 002°01'0 0.0
2018-Jul-21 06:59N 48°39' W 002°01'0 0.0
2018-Jul-20 20:02N 48°39' W 002°01'0 0.0
2018-Jul-20 19:56N 48°39' W 002°01'0 0.0
2018-Jul-20 13:38N 48°39' W 002°01'0 0.0
2018-Jul-20 13:20N 48°39' W 002°01'0 0.0
2018-Jul-20 12:59N 48°39' W 002°01'0 0.1
2018-Jul-20 09:42N 48°39' W 002°01'1 0.7
2018-Jul-20 08:55N 48°39' W 002°02'3 3.7
2018-Jul-20 08:13N 48°40' W 002°05'1 5.4
2018-Jul-20 08:00N 48°41' W 002°06'6 8.1
2018-Jul-20 07:19N 48°45' W 002°11'3 9.9
2018-Jul-20 07:01N 48°48' W 002°14'5 9.7
2018-Jul-20 06:30N 48°51' W 002°18'7 8.7
2018-Jul-20 05:42N 48°58' W 002°22'2 9.4
2018-Jul-20 05:29N 48°60' W 002°22'5 9.3
2018-Jul-20 04:55N 49°05' W 002°23'8 9.2
2018-Jul-20 04:06N 49°13' W 002°23'4 9.1
2018-Jul-20 03:37N 49°17' W 002°21'3 8.9
2018-Jul-20 03:14N 49°20' W 002°18'2 8.4
2018-Jul-20 02:58N 49°22' W 002°17'5 8.1
2018-Jul-20 02:22N 49°26' W 002°14'4 7.7
2018-Jul-20 01:52N 49°30' W 002°11'3 7.8
2018-Jul-20 01:30N 49°32' W 002°09'6 7.1
2018-Jul-20 00:43N 49°37' W 002°06'2 6.2
2018-Jul-20 00:25N 49°39' W 002°04'2 5.3
2018-Jul-19 23:56N 49°41' W 002°03'1 3.3
2018-Jul-19 23:31N 49°43' W 002°02'2 4.0
2018-Jul-19 22:53N 49°45' W 002°00'25 9.1
2018-Jul-19 20:07N 49°46' W 001°21'111.7
2018-Jul-19 20:01N 49°47' W 001°19'1411.9
2018-Jul-19 18:49N 49°40' W 001°00'411.6
2018-Jul-19 18:30N 49°38' W 000°56'611.4
2018-Jul-19 18:00N 49°35' W 000°48'511.0
2018-Jul-19 17:30N 49°32' W 000°41'510.2
2018-Jul-19 17:00N 49°29' W 000°34'5 9.7
2018-Jul-19 16:30N 49°26' W 000°28'5 9.3
2018-Jul-19 16:00N 49°24' W 000°22'5 9.3
2018-Jul-19 15:30N 49°21' W 000°16'4 7.9
2018-Jul-19 15:00N 49°17' W 000°15'1 1.2
2018-Jul-19 14:30N 49°17' W 000°15'0 0.4
2018-Jul-19 13:21N 49°16' W 000°15'0 0.0
2018-Jul-19 13:00N 49°16' W 000°15'0 0.0
2018-Jul-19 12:30N 49°16' W 000°15'0 0.0
2018-Jul-19 12:00N 49°16' W 000°15'0 0.0
2018-Jul-19 11:30N 49°16' W 000°15'0 0.0
2018-Jul-19 11:00N 49°16' W 000°15'0 0.0
2018-Jul-19 10:30N 49°16' W 000°15'0 0.0
2018-Jul-19 10:00N 49°16' W 000°15'0 0.0
2018-Jul-19 09:30N 49°16' W 000°15'0 0.0
2018-Jul-19 09:00N 49°16' W 000°15'0 0.0
2018-Jul-19 08:30N 49°16' W 000°15'0 0.0
2018-Jul-19 08:00N 49°16' W 000°15'0 0.0
2018-Jul-19 07:30N 49°16' W 000°15'0 0.0
2018-Jul-19 07:00N 49°16' W 000°15'0 0.0
2018-Jul-19 06:30N 49°16' W 000°15'0 0.0
2018-Jul-19 06:00N 49°16' W 000°15'0 0.0
2018-Jul-19 05:30N 49°16' W 000°15'0 0.0
2018-Jul-19 05:00N 49°16' W 000°15'0 0.0
2018-Jul-19 04:30N 49°16' W 000°15'0 0.0
2018-Jul-19 04:00N 49°16' W 000°15'0 0.0
2018-Jul-19 03:30N 49°16' W 000°15'0 0.0
2018-Jul-19 02:54N 49°16' W 000°15'0 0.0
2018-Jul-19 02:30N 49°16' W 000°15'0 0.0
2018-Jul-19 02:00N 49°16' W 000°15'0 0.0
2018-Jul-19 01:30N 49°16' W 000°15'0 0.0
2018-Jul-19 01:00N 49°16' W 000°15'0 0.0
2018-Jul-19 00:30N 49°16' W 000°15'0 0.0
2018-Jul-19 00:00N 49°16' W 000°15'0 0.0
2018-Jul-18 23:30N 49°16' W 000°15'0 0.0
2018-Jul-18 23:00N 49°16' W 000°15'0 0.0
2018-Jul-18 22:30N 49°16' W 000°15'0 0.0
2018-Jul-18 22:00N 49°16' W 000°15'0 0.0
2018-Jul-18 21:27N 49°16' W 000°15'0 0.0
2018-Jul-18 21:00N 49°16' W 000°15'0 0.0
2018-Jul-18 20:30N 49°16' W 000°15'0 0.0
2018-Jul-18 20:00N 49°16' W 000°15'0 0.0
2018-Jul-18 19:30N 49°16' W 000°15'0 0.0
2018-Jul-18 19:00N 49°16' W 000°15'0 0.0
2018-Jul-18 18:30N 49°16' W 000°15'0 0.0
2018-Jul-18 18:00N 49°16' W 000°15'0 0.0
2018-Jul-18 17:30N 49°16' W 000°15'0 0.0
2018-Jul-18 17:00N 49°16' W 000°15'0 0.0
2018-Jul-18 16:30N 49°16' W 000°15'0 0.0
2018-Jul-18 16:00N 49°16' W 000°15'0 0.0
2018-Jul-18 15:30N 49°16' W 000°15'0 0.0
2018-Jul-18 14:59N 49°16' W 000°15'0 0.0
2018-Jul-18 14:30N 49°16' W 000°15'0 0.0
2018-Jul-18 13:29N 49°16' W 000°15'0 0.0
2018-Jul-18 12:59N 49°16' W 000°15'0 0.0
2018-Jul-18 12:29N 49°16' W 000°15'0 0.0
2018-Jul-18 11:59N 49°16' W 000°15'0 0.0
2018-Jul-18 11:29N 49°16' W 000°15'0 0.0
2018-Jul-18 10:29N 49°16' W 000°15'0 0.0
2018-Jul-18 09:56N 49°16' W 000°15'0 0.0
2018-Jul-18 09:29N 49°16' W 000°15'0 0.0
2018-Jul-18 08:59N 49°16' W 000°15'0 0.0
2018-Jul-18 08:29N 49°16' W 000°15'0 0.0
2018-Jul-18 07:59N 49°16' W 000°15'0 0.0
2018-Jul-18 07:23N 49°16' W 000°15'0 0.0
2018-Jul-18 06:59N 49°16' W 000°15'0 0.0
2018-Jul-18 06:29N 49°16' W 000°15'0 0.0
2018-Jul-18 05:59N 49°16' W 000°15'0 0.0
2018-Jul-18 05:29N 49°16' W 000°15'0 0.0
2018-Jul-18 04:59N 49°16' W 000°15'0 0.0
2018-Jul-18 04:29N 49°16' W 000°15'0 0.0
2018-Jul-18 03:56N 49°16' W 000°15'0 0.0
2018-Jul-18 03:29N 49°16' W 000°15'0 0.0
2018-Jul-18 02:59N 49°16' W 000°15'0 0.0
2018-Jul-18 02:29N 49°16' W 000°15'0 0.0
2018-Jul-18 01:59N 49°16' W 000°15'0 0.0
2018-Jul-18 01:29N 49°16' W 000°15'0 0.0
2018-Jul-18 00:59N 49°16' W 000°15'0 0.0
2018-Jul-18 00:29N 49°16' W 000°15'0 0.0
2018-Jul-17 23:59N 49°16' W 000°15'0 0.0
2018-Jul-17 23:29N 49°16' W 000°15'0 0.0
2018-Jul-17 22:59N 49°16' W 000°15'0 0.0
2018-Jul-17 22:29N 49°16' W 000°15'0 0.0
2018-Jul-17 21:56N 49°16' W 000°15'0 0.0
2018-Jul-17 21:29N 49°16' W 000°15'0 0.0
2018-Jul-17 20:59N 49°16' W 000°15'0 0.0
2018-Jul-17 20:29N 49°16' W 000°15'0 0.0
2018-Jul-17 19:59N 49°16' W 000°15'0 0.0
2018-Jul-17 19:29N 49°16' W 000°15'0 0.0
2018-Jul-17 18:59N 49°16' W 000°15'0 0.0
2018-Jul-17 18:29N 49°16' W 000°15'0 0.0
2018-Jul-17 17:59N 49°16' W 000°15'0 0.0
2018-Jul-17 17:29N 49°16' W 000°15'0 0.0
2018-Jul-17 16:59N 49°16' W 000°15'0 0.0
2018-Jul-17 16:29N 49°16' W 000°15'0 0.0
2018-Jul-17 15:59N 49°16' W 000°15'1 1.1
2018-Jul-17 15:30N 49°17' W 000°15'0 0.5
2018-Jul-17 15:00N 49°17' W 000°15'2 4.7
2018-Jul-17 14:30N 49°19' W 000°15'1 1.8
2018-Jul-17 14:01N 49°20' W 000°14'2 4.5
2018-Jul-17 13:30N 49°22' W 000°17'3 6.6
2018-Jul-17 13:00N 49°24' W 000°21'4 8.0
2018-Jul-17 12:30N 49°26' W 000°26'4 8.8
2018-Jul-17 12:00N 49°29' W 000°31'4 8.2
2018-Jul-17 11:30N 49°31' W 000°37'2 3.7
2018-Jul-17 11:00N 49°32' W 000°38'1 1.3
2018-Jul-17 10:30N 49°32' W 000°39'1 1.4
2018-Jul-17 10:00N 49°32' W 000°40'1 2.1
2018-Jul-17 09:30N 49°31' W 000°40'1 2.3
2018-Jul-17 09:00N 49°30' W 000°39'1 2.2
2018-Jul-17 08:30N 49°29' W 000°38'1 1.4
2018-Jul-17 08:00N 49°29' W 000°39'1 2.3
2018-Jul-17 07:30N 49°28' W 000°39'1 1.3
2018-Jul-17 06:57N 49°27' W 000°40'3 5.8
2018-Jul-17 06:30N 49°25' W 000°41'3 5.3
2018-Jul-17 06:00N 49°22' W 000°42'0 0.0
2018-Jul-17 02:01N 49°22' W 000°42'0 0.0
2018-Jul-16 22:55N 49°22' W 000°42'0 0.0
2018-Jul-16 21:43N 49°22' W 000°42'0 0.0
2018-Jul-16 19:37N 49°22' W 000°42'0 0.0
2018-Jul-16 19:25N 49°22' W 000°42'0 0.0
2018-Jul-16 18:37N 49°22' W 000°42'0 0.0
2018-Jul-16 18:28N 49°22' W 000°42'0 0.0
2018-Jul-16 17:58N 49°22' W 000°42'0 0.0
2018-Jul-16 17:25N 49°22' W 000°42'0 0.0
2018-Jul-16 16:58N 49°22' W 000°42'0 0.0
2018-Jul-16 16:28N 49°22' W 000°42'0 0.0
2018-Jul-16 15:55N 49°22' W 000°42'0 0.0
2018-Jul-16 15:28N 49°22' W 000°42'0 0.0
2018-Jul-16 14:58N 49°22' W 000°42'1 1.8
2018-Jul-16 14:30N 49°23' W 000°42'2 3.4
2018-Jul-16 14:00N 49°25' W 000°43'2 4.2
2018-Jul-16 13:30N 49°27' W 000°43'2 3.9
2018-Jul-16 13:00N 49°29' W 000°43'1 2.1
2018-Jul-16 12:30N 49°30' W 000°43'1 2.8
2018-Jul-16 12:00N 49°30' W 000°45'1 1.7
2018-Jul-16 11:31N 49°30' W 000°46'1 1.4
2018-Jul-16 11:01N 49°30' W 000°46'1 2.9
2018-Jul-16 10:31N 49°30' W 000°44'2 3.4
2018-Jul-16 10:01N 49°32' W 000°44'2 4.7
2018-Jul-16 09:30N 49°31' W 000°47'1 1.6
2018-Jul-16 09:00N 49°30' W 000°48'2 3.6
2018-Jul-16 08:30N 49°29' W 000°48'1 2.7
2018-Jul-16 08:00N 49°28' W 000°46'1 2.0
2018-Jul-16 07:30N 49°28' W 000°45'1 2.7
2018-Jul-16 07:00N 49°26' W 000°46'2 3.5
2018-Jul-16 06:31N 49°25' W 000°48'3 6.3
2018-Jul-16 06:00N 49°22' W 000°47'0 0.1
2018-Jul-16 05:27N 49°22' W 000°47'0 0.0
2018-Jul-16 05:00N 49°22' W 000°47'0 0.0
2018-Jul-16 04:30N 49°22' W 000°47'0 0.0
2018-Jul-16 04:00N 49°22' W 000°47'0 0.0
2018-Jul-16 03:30N 49°22' W 000°47'0 0.0
2018-Jul-16 03:00N 49°22' W 000°47'0 0.0
2018-Jul-16 02:30N 49°22' W 000°47'0 0.0
2018-Jul-16 01:51N 49°22' W 000°47'0 0.0
2018-Jul-16 01:27N 49°22' W 000°47'0 0.0
2018-Jul-16 01:00N 49°22' W 000°47'0 0.0
2018-Jul-16 00:30N 49°22' W 000°47'0 0.0
2018-Jul-15 23:57N 49°22' W 000°47'0 0.0
2018-Jul-15 23:27N 49°22' W 000°47'0 0.0
2018-Jul-15 22:57N 49°22' W 000°47'0 0.0
2018-Jul-15 22:30N 49°22' W 000°47'0 0.0
2018-Jul-15 22:00N 49°22' W 000°47'0 0.0
2018-Jul-15 21:30N 49°22' W 000°47'0 0.0
2018-Jul-15 21:00N 49°22' W 000°47'0 0.0
2018-Jul-15 20:27N 49°22' W 000°47'0 0.0
2018-Jul-15 19:57N 49°22' W 000°47'0 0.0
2018-Jul-15 18:54N 49°22' W 000°47'0 0.0
2018-Jul-15 18:15N 49°22' W 000°47'0 0.0
2018-Jul-15 17:54N 49°22' W 000°47'0 0.0
2018-Jul-15 17:30N 49°22' W 000°47'0 0.0
2018-Jul-15 17:00N 49°22' W 000°47'0 0.0
2018-Jul-15 16:15N 49°22' W 000°47'0 0.0
2018-Jul-15 15:55N 49°22' W 000°47'3 7.0
2018-Jul-15 15:30N 49°25' W 000°45'5 9.6
2018-Jul-15 15:00N 49°29' W 000°42'3 6.3
2018-Jul-15 14:30N 49°32' W 000°40'3 6.8
2018-Jul-15 14:00N 49°35' W 000°41'1 2.0
2018-Jul-15 13:30N 49°36' W 000°42'1 3.0
2018-Jul-15 13:00N 49°37' W 000°44'1 2.9
2018-Jul-15 12:30N 49°38' W 000°43'0 0.2
2018-Jul-15 12:00N 49°38' W 000°43'1 2.2
2018-Jul-15 11:29N 49°37' W 000°41'2 4.4
2018-Jul-15 11:00N 49°37' W 000°38'3 5.0
2018-Jul-15 10:30N 49°35' W 000°36'1 2.9
2018-Jul-15 10:00N 49°34' W 000°34'1 1.5
2018-Jul-15 09:30N 49°34' W 000°33'2 3.7
2018-Jul-15 09:00N 49°34' W 000°35'1 2.4
2018-Jul-15 08:30N 49°32' W 000°35'2 3.0
2018-Jul-15 08:00N 49°31' W 000°33'3 7.0
2018-Jul-15 07:30N 49°28' W 000°36'2 3.7
2018-Jul-15 07:00N 49°27' W 000°37'2 4.5
2018-Jul-15 06:30N 49°24' W 000°38'3 6.6
2018-Jul-15 06:00N 49°22' W 000°42'0 0.0
2018-Jul-15 05:28N 49°22' W 000°42'0 0.0
2018-Jul-15 04:55N 49°22' W 000°42'0 0.0
2018-Jul-15 04:25N 49°22' W 000°42'0 0.0
2018-Jul-15 03:58N 49°22' W 000°42'0 0.0
2018-Jul-15 03:28N 49°22' W 000°42'0 0.0
2018-Jul-15 02:55N 49°22' W 000°42'0 0.0
2018-Jul-15 02:28N 49°22' W 000°42'0 0.0
2018-Jul-15 01:55N 49°22' W 000°42'0 0.0
2018-Jul-15 01:19N 49°22' W 000°42'0 0.0
2018-Jul-15 00:58N 49°22' W 000°42'0 0.0
2018-Jul-15 00:28N 49°22' W 000°42'0 0.0
2018-Jul-14 23:55N 49°22' W 000°42'0 0.0
2018-Jul-14 23:25N 49°22' W 000°42'0 0.0
2018-Jul-14 22:58N 49°22' W 000°42'0 0.0
2018-Jul-14 22:28N 49°22' W 000°42'0 0.0
2018-Jul-14 21:52N 49°22' W 000°42'0 0.0
2018-Jul-14 21:28N 49°22' W 000°42'0 0.0
2018-Jul-14 20:55N 49°22' W 000°42'0 0.0
2018-Jul-14 20:28N 49°22' W 000°42'0 0.0
2018-Jul-14 19:58N 49°22' W 000°42'0 0.0
2018-Jul-14 19:28N 49°22' W 000°42'0 0.0
2018-Jul-14 18:52N 49°22' W 000°42'0 0.0
2018-Jul-14 18:28N 49°22' W 000°42'0 0.0
2018-Jul-14 17:58N 49°22' W 000°42'0 0.0
2018-Jul-14 17:28N 49°22' W 000°42'0 0.0
2018-Jul-14 16:58N 49°22' W 000°42'0 0.0
2018-Jul-14 16:28N 49°22' W 000°42'0 0.5
2018-Jul-14 16:01N 49°22' W 000°41'5 9.8
2018-Jul-14 15:30N 49°26' W 000°36'1 2.0
2018-Jul-14 15:00N 49°27' W 000°36'2 3.4
2018-Jul-14 14:30N 49°29' W 000°36'3 2.7
2018-Jul-14 13:30N 49°31' W 000°34'1 1.9
2018-Jul-14 13:00N 49°31' W 000°32'3 6.7
2018-Jul-14 12:31N 49°31' W 000°27'2 4.1
2018-Jul-14 12:01N 49°30' W 000°25'2 4.5
2018-Jul-14 11:30N 49°29' W 000°29'2 4.8
2018-Jul-14 11:00N 49°27' W 000°30'1 1.4
2018-Jul-14 10:30N 49°28' W 000°30'2 4.3
2018-Jul-14 10:00N 49°26' W 000°31'2 3.3
2018-Jul-14 09:30N 49°24' W 000°29'3 5.2
2018-Jul-14 09:01N 49°23' W 000°26'4 8.0
2018-Jul-14 08:30N 49°21' W 000°20'4 8.3
2018-Jul-14 08:00N 49°19' W 000°15'3 5.0
2018-Jul-14 07:30N 49°17' W 000°15'0 0.9
2018-Jul-14 07:00N 49°16' W 000°15'0 0.1
2018-Jul-14 06:29N 49°16' W 000°15'0 0.0
2018-Jul-14 05:59N 49°16' W 000°15'0 0.0
2018-Jul-14 05:26N 49°16' W 000°15'0 0.0
2018-Jul-14 04:59N 49°16' W 000°15'0 0.0
2018-Jul-14 04:29N 49°16' W 000°15'0 0.0
2018-Jul-14 03:59N 49°16' W 000°15'0 0.0
2018-Jul-14 03:29N 49°16' W 000°15'0 0.0
2018-Jul-14 02:59N 49°16' W 000°15'0 0.0
2018-Jul-14 02:29N 49°16' W 000°15'0 0.0
2018-Jul-14 01:56N 49°16' W 000°15'0 0.0
2018-Jul-14 01:29N 49°16' W 000°15'0 0.0
2018-Jul-14 00:59N 49°16' W 000°15'0 0.0
2018-Jul-14 00:29N 49°16' W 000°15'0 0.0
2018-Jul-13 23:59N 49°16' W 000°15'0 0.0
2018-Jul-13 23:29N 49°16' W 000°15'0 0.0
2018-Jul-13 22:59N 49°16' W 000°15'0 0.0
2018-Jul-13 22:29N 49°16' W 000°15'0 0.0
2018-Jul-13 21:59N 49°16' W 000°15'0 0.0
2018-Jul-13 21:29N 49°16' W 000°15'0 0.0
2018-Jul-13 20:59N 49°16' W 000°15'0 0.0
2018-Jul-13 20:26N 49°16' W 000°15'0 0.0
2018-Jul-13 19:59N 49°16' W 000°15'0 0.0
2018-Jul-13 19:29N 49°16' W 000°15'0 0.0
2018-Jul-13 18:59N 49°16' W 000°15'0 0.0
2018-Jul-13 18:29N 49°16' W 000°15'0 0.0
2018-Jul-13 17:59N 49°16' W 000°15'0 0.0
2018-Jul-13 17:29N 49°16' W 000°15'0 0.0
2018-Jul-13 16:59N 49°16' W 000°15'0 0.0
2018-Jul-13 16:29N 49°16' W 000°15'0 0.0
2018-Jul-13 15:59N 49°16' W 000°15'0 0.0
2018-Jul-13 15:29N 49°16' W 000°15'0 0.0
2018-Jul-13 14:58N 49°16' W 000°15'0 0.0
2018-Jul-13 14:29N 49°16' W 000°15'0 0.0
2018-Jul-13 13:28N 49°16' W 000°15'0 0.0
2018-Jul-13 12:58N 49°16' W 000°15'0 0.0
2018-Jul-13 12:28N 49°16' W 000°15'0 0.0
2018-Jul-13 11:58N 49°16' W 000°15'0 0.0
2018-Jul-13 11:28N 49°16' W 000°15'0 0.0
2018-Jul-13 10:58N 49°16' W 000°15'0 0.0
2018-Jul-13 10:28N 49°16' W 000°15'0 0.0
2018-Jul-13 09:58N 49°16' W 000°15'0 0.0
2018-Jul-13 09:28N 49°16' W 000°15'0 0.0
2018-Jul-13 08:58N 49°16' W 000°15'0 0.0
2018-Jul-13 08:25N 49°16' W 000°15'0 0.0
2018-Jul-13 07:55N 49°16' W 000°15'0 0.0
2018-Jul-13 07:28N 49°16' W 000°15'0 0.0
2018-Jul-13 06:58N 49°16' W 000°15'0 0.0
2018-Jul-13 06:25N 49°16' W 000°15'0 0.0
2018-Jul-13 05:58N 49°16' W 000°15'0 0.0
2018-Jul-13 05:28N 49°16' W 000°15'0 0.0
2018-Jul-13 04:58N 49°16' W 000°15'0 0.0
2018-Jul-13 04:28N 49°16' W 000°15'0 0.0
2018-Jul-13 03:58N 49°16' W 000°15'0 0.0
2018-Jul-13 03:28N 49°16' W 000°15'0 0.0
2018-Jul-13 02:58N 49°16' W 000°15'0 0.0
2018-Jul-13 02:28N 49°16' W 000°15'0 0.0
2018-Jul-13 01:55N 49°16' W 000°15'0 0.0
2018-Jul-13 01:28N 49°16' W 000°15'0 0.0
2018-Jul-13 00:58N 49°16' W 000°15'0 0.0
2018-Jul-13 00:28N 49°16' W 000°15'0 0.0
2018-Jul-12 23:58N 49°16' W 000°15'0 0.0
2018-Jul-12 23:28N 49°16' W 000°15'0 0.0
2018-Jul-12 22:58N 49°16' W 000°15'0 0.0
2018-Jul-12 22:28N 49°16' W 000°15'0 0.0
2018-Jul-12 21:58N 49°16' W 000°15'0 0.0
2018-Jul-12 21:25N 49°16' W 000°15'0 0.0
2018-Jul-12 20:58N 49°16' W 000°15'0 0.0
2018-Jul-12 20:28N 49°16' W 000°15'0 0.0
2018-Jul-12 19:58N 49°16' W 000°15'0 0.0
2018-Jul-12 19:28N 49°16' W 000°15'0 0.0
2018-Jul-12 18:58N 49°16' W 000°15'0 0.0
2018-Jul-12 18:28N 49°16' W 000°15'0 0.0
2018-Jul-12 17:58N 49°16' W 000°15'0 0.0
2018-Jul-12 17:28N 49°16' W 000°15'0 0.0
2018-Jul-12 16:58N 49°16' W 000°15'0 0.0
2018-Jul-12 16:25N 49°16' W 000°15'0 0.0
2018-Jul-12 15:58N 49°16' W 000°15'0 0.0
2018-Jul-12 15:28N 49°16' W 000°15'0 0.0
2018-Jul-12 14:58N 49°16' W 000°15'0 0.0
2018-Jul-12 14:28N 49°16' W 000°15'0 0.0
2018-Jul-12 13:58N 49°16' W 000°15'0 0.0
2018-Jul-12 13:28N 49°16' W 000°15'0 0.0
2018-Jul-12 12:58N 49°16' W 000°15'0 0.0
2018-Jul-12 12:28N 49°16' W 000°15'0 0.0
2018-Jul-12 11:58N 49°16' W 000°15'0 0.0
2018-Jul-12 11:31N 49°16' W 000°15'1 1.1
2018-Jul-12 11:01N 49°17' W 000°15'2 3.1
2018-Jul-12 10:31N 49°18' W 000°15'1 2.1
2018-Jul-12 10:01N 49°19' W 000°14'1 1.6
2018-Jul-12 09:31N 49°20' W 000°14'5 9.1
2018-Jul-12 09:01N 49°24' W 000°19'510.5
2018-Jul-12 08:30N 49°28' W 000°24'3 5.2
2018-Jul-12 08:00N 49°30' W 000°26'3 6.4
2018-Jul-12 07:30N 49°28' W 000°29'1 1.5
2018-Jul-12 07:00N 49°28' W 000°30'1 2.7
2018-Jul-12 06:31N 49°26' W 000°31'4 7.1
2018-Jul-12 06:01N 49°23' W 000°31'0 0.0
2018-Jul-12 05:30N 49°23' W 000°31'0 0.0
2018-Jul-12 05:00N 49°23' W 000°31'  

Dump ship's entire track history